Airfield :
LOGIN :

Register | Disclaimer

   EN    FR    IT 

 










Legend :    VFR   Marginal VFR   IFR   Intensive IFR   Very Intensive IFR
Visi :
Ceiling :
>= 8 km
>= 3000ft
5 to 8 km
1000 to 3000 ft
1500m to 5 km
500 to 1000 ft
800 to 1500m
200 to 500 ft
< 800m
< 200 ft
Symbols :   Thunderstorms  Fog  Heavy snow  Heavy precipitations  Wind > 20 kt
SIGMETs :     Misc.  Thunderstorms  Icing  Turbulence  Mountain Waves  Volcanic Ashes






- Airport Elevation : 2096 ft
- IATA code : AUR


LFLW - Aurillac

CURRENT METAR :
  • 070730Z AUTO 28003KT 240V340 CAVOK 16/11 Q1026 NOSIG

EXPIRED METARs :
  • 070700Z AUTO VRB02KT CAVOK 15/10 Q1026 NOSIG
  • 070630Z AUTO VRB03KT CAVOK 13/10 Q1026 NOSIG
  • 070600Z AUTO VRB02KT CAVOK 12/09 Q1026 NOSIG
  • 070530Z AUTO 00000KT CAVOK 11/09 Q1026 NOSIG
  • 070500Z AUTO VRB02KT CAVOK 09/08 Q1026

TAF TAF LFLW
Valid from the 07 at 06:00 until the 07 at 15:00 UTC


070500Z 0706/0715 35010KT CAVOK
TEMPO 0706/0709 VRB03KT



MET'MAP, your aeronautical weather chart ! - Copyright ORBIFLY December 2007 - Disclaimer

ORBIFLY MET'MAP TEAM :

Programming & Development : Alexandra Zaïnal
Original concept : Baudouin d'Aumeries
Technical & hardware support : Manuel Goepfert
Assistance : Marc-Olivier Méhu




SOURCES & CREDITS :

   NOAA